Terminal Aerodrome Forecast
Issued by NWS

Home | Current Version | Previous Version | Text Only | Print | Product List | Glossary On
Versions: 1 2 3 4 5 6 7 8 9 10 11 12 13 14 15 16 17 18 19 20 21
522
FTUS43 KABR 182327
TAFMBG
TAF
KMBG 182327Z 1900/1924 28006KT P6SM SCT250
     FM190700 22006KT P6SM SCT250
     FM191500 25013KT P6SM SCT250=

USA.gov is the U.S. government's official web portal to all federal, state and local government web resources and services.